createdAt,value
2022-12-28T00:02:45.094Z,20.96
2022-12-28T00:05:51.943Z,22.96
2022-12-28T00:09:01.121Z,23.14
2022-12-28T00:12:09.171Z,25.90
2022-12-28T00:15:15.278Z,30.60
2022-12-28T00:18:22.110Z,35.87
2022-12-28T00:21:29.262Z,38.22
2022-12-28T00:24:38.788Z,29.09
2022-12-28T00:27:44.842Z,28.90
2022-12-28T00:30:51.834Z,27.67
2022-12-28T00:33:58.147Z,27.89
2022-12-28T00:37:08.571Z,24.20
2022-12-28T00:40:23.915Z,21.81
2022-12-28T00:43:31.195Z,19.80
2022-12-28T00:46:38.720Z,18.77
2022-12-28T00:49:45.668Z,17.73
2022-12-28T00:52:51.769Z,17.45
2022-12-28T00:56:09.232Z,16.76
2022-12-28T00:59:15.801Z,16.31
2022-12-28T01:02:22.836Z,15.62
2022-12-28T01:05:29.516Z,16.56
2022-12-28T01:08:36.643Z,17.48
2022-12-28T01:11:45.534Z,17.74
2022-12-28T01:14:52.454Z,18.38
2022-12-28T01:17:58.470Z,19.64
2022-12-28T01:21:13.565Z,19.27
2022-12-28T01:24:22.115Z,19.32
2022-12-28T01:27:31.513Z,19.00
2022-12-28T01:30:38.973Z,18.76
2022-12-28T01:33:47.351Z,18.57
2022-12-28T01:36:54.212Z,18.40
2022-12-28T01:40:01.211Z,18.75
2022-12-28T01:43:29.853Z,19.50
2022-12-28T01:46:45.767Z,18.75
2022-12-28T01:50:06.862Z,19.73
2022-12-28T01:53:14.726Z,19.10
2022-12-28T01:56:21.833Z,18.84
2022-12-28T01:59:39.498Z,19.59
2022-12-28T02:02:55.785Z,19.12
2022-12-28T02:06:09.574Z,20.37
2022-12-28T02:09:27.140Z,20.00
2022-12-28T02:12:36.297Z,20.23
2022-12-28T02:15:49.903Z,20.17
2022-12-28T02:18:59.345Z,20.37
2022-12-28T02:22:46.616Z,19.98
2022-12-28T02:26:38.812Z,18.24
2022-12-28T02:30:10.486Z,18.18
2022-12-28T02:33:30.336Z,17.82
2022-12-28T02:36:53.088Z,18.22
2022-12-28T02:40:09.982Z,19.13
2022-12-28T02:43:18.297Z,19.40
2022-12-28T02:46:45.623Z,20.29
2022-12-28T02:50:04.853Z,20.30
2022-12-28T02:53:51.599Z,19.37
2022-12-28T02:57:13.921Z,20.12
2022-12-28T03:00:24.709Z,20.07
2022-12-28T03:03:55.723Z,20.63
2022-12-28T03:07:28.635Z,19.16
2022-12-28T03:10:49.135Z,19.48
2022-12-28T03:14:06.275Z,19.25
2022-12-28T03:17:28.843Z,19.89
2022-12-28T03:20:49.949Z,19.13
2022-12-28T03:24:13.255Z,19.18
2022-12-28T03:27:38.289Z,19.21
2022-12-28T03:31:07.340Z,18.46
2022-12-28T03:34:18.477Z,17.55
2022-12-28T03:37:41.995Z,16.51
2022-12-28T03:40:57.698Z,15.38
2022-12-28T03:44:13.238Z,14.31
2022-12-28T03:47:27.044Z,13.79
2022-12-28T03:50:39.890Z,13.04
2022-12-28T03:53:51.346Z,12.73
2022-12-28T03:57:01.166Z,12.49
2022-12-28T04:00:14.176Z,11.95
2022-12-28T04:03:23.717Z,11.88
2022-12-28T04:06:30.072Z,10.98
2022-12-28T04:09:40.264Z,10.36
2022-12-28T04:12:50.394Z,10.60
2022-12-28T04:16:14.107Z,11.03
2022-12-28T04:19:21.853Z,10.69
2022-12-28T04:22:29.014Z,10.80
2022-12-28T04:25:40.086Z,11.03
2022-12-28T04:28:48.494Z,11.12
2022-12-28T04:32:03.506Z,11.96
2022-12-28T04:35:11.287Z,12.26
2022-12-28T04:38:26.934Z,11.57
2022-12-28T04:41:36.423Z,11.15
2022-12-28T04:44:42.528Z,10.96
2022-12-28T04:47:49.468Z,12.73
2022-12-28T04:50:56.792Z,14.59
2022-12-28T04:54:03.891Z,18.46
2022-12-28T04:57:12.553Z,14.22
2022-12-28T05:00:19.713Z,11.08
2022-12-28T05:03:25.735Z,9.79
2022-12-28T05:06:32.654Z,9.76
2022-12-28T05:09:38.761Z,9.76
2022-12-28T05:12:48.291Z,10.21
2022-12-28T05:15:54.404Z,9.82
2022-12-28T05:19:01.850Z,11.89
2022-12-28T05:22:12.010Z,12.50
2022-12-28T05:25:19.077Z,12.32
2022-12-28T05:28:29.216Z,13.74
2022-12-28T05:31:36.156Z,17.14
2022-12-28T05:34:42.326Z,23.60
2022-12-28T05:37:49.178Z,28.05
2022-12-28T05:40:55.147Z,23.40
2022-12-28T05:44:04.618Z,19.25
2022-12-28T05:47:10.859Z,17.70
2022-12-28T05:50:18.068Z,19.01
2022-12-28T05:53:24.099Z,17.86
2022-12-28T05:56:33.224Z,17.34
2022-12-28T05:59:41.868Z,18.32
2022-12-28T06:02:48.806Z,19.80
2022-12-28T06:05:54.909Z,18.20
2022-12-28T06:09:02.066Z,15.89
2022-12-28T06:12:08.957Z,17.52
2022-12-28T06:15:18.598Z,17.09
2022-12-28T06:18:24.838Z,15.15
2022-12-28T06:21:34.415Z,14.60
2022-12-28T06:24:40.503Z,14.76
2022-12-28T06:27:47.420Z,14.19
2022-12-28T06:30:56.036Z,14.41
2022-12-28T06:34:05.574Z,13.66
2022-12-28T06:37:12.400Z,13.00
2022-12-28T06:40:21.912Z,12.95
2022-12-28T06:43:36.069Z,12.83
2022-12-28T06:46:45.658Z,12.63
2022-12-28T06:49:51.687Z,13.67
2022-12-28T06:52:58.653Z,13.29
2022-12-28T06:56:08.539Z,13.05
2022-12-28T06:59:15.396Z,13.29
2022-12-28T07:02:24.133Z,13.18
2022-12-28T07:05:31.062Z,13.58
2022-12-28T07:08:37.807Z,13.16
2022-12-28T07:11:45.624Z,14.30
2022-12-28T07:14:51.606Z,14.95
2022-12-28T07:18:02.143Z,15.81
2022-12-28T07:21:13.603Z,15.90
2022-12-28T07:24:20.414Z,14.53
2022-12-28T07:27:26.470Z,14.72
2022-12-28T07:30:33.327Z,17.02
2022-12-28T07:33:43.367Z,15.21
2022-12-28T07:36:52.108Z,16.13
2022-12-28T07:39:58.123Z,19.86
2022-12-28T07:43:04.950Z,16.16
2022-12-28T07:46:15.024Z,14.37
2022-12-28T07:49:24.552Z,14.06
2022-12-28T07:52:30.567Z,14.92
2022-12-28T07:55:37.551Z,13.25
2022-12-28T08:01:54.672Z,15.37
2022-12-28T08:05:03.537Z,16.90
2022-12-28T08:08:12.877Z,15.29
2022-12-28T08:11:22.297Z,15.30
2022-12-28T08:14:29.346Z,14.69
2022-12-28T08:17:35.505Z,15.33
2022-12-28T08:20:45.067Z,15.38
2022-12-28T08:23:52.622Z,14.98
2022-12-28T08:26:59.525Z,14.43
2022-12-28T08:30:05.616Z,14.03
2022-12-28T08:33:12.543Z,14.08
2022-12-28T08:36:21.282Z,14.17
2022-12-28T08:39:28.155Z,14.06
2022-12-28T08:42:34.347Z,13.35
2022-12-28T08:45:41.272Z,12.84
2022-12-28T08:48:49.385Z,13.22
2022-12-28T08:51:59.049Z,12.19
2022-12-28T08:55:05.105Z,11.53
2022-12-28T08:58:11.997Z,11.57
2022-12-28T09:01:21.275Z,11.73
2022-12-28T09:04:28.222Z,12.82
2022-12-28T09:07:36.848Z,12.23
2022-12-28T09:10:43.686Z,12.66
2022-12-28T09:13:50.205Z,12.47
2022-12-28T09:16:57.729Z,13.14
2022-12-28T09:20:03.835Z,12.93
2022-12-28T09:23:13.552Z,13.22
2022-12-28T09:26:23.291Z,13.02
2022-12-28T09:29:30.179Z,11.91
2022-12-28T09:32:36.250Z,12.40
2022-12-28T09:35:43.087Z,11.67
2022-12-28T09:38:53.390Z,12.87
2022-12-28T09:42:06.155Z,14.72
2022-12-28T09:45:16.266Z,13.65
2022-12-28T09:48:28.035Z,12.82
2022-12-28T09:51:44.667Z,12.51
2022-12-28T09:54:54.300Z,12.42
2022-12-28T09:58:03.529Z,13.26
2022-12-28T10:01:19.660Z,14.90
2022-12-28T10:04:26.991Z,14.62
2022-12-28T10:07:34.741Z,12.73
2022-12-28T10:10:49.149Z,13.38
2022-12-28T10:14:01.492Z,14.38
2022-12-28T10:17:09.761Z,12.84
2022-12-28T10:20:23.405Z,13.48
2022-12-28T10:23:41.235Z,14.34
2022-12-28T10:27:04.099Z,13.79
2022-12-28T10:30:24.178Z,14.87
2022-12-28T10:33:31.374Z,14.86
2022-12-28T10:36:37.673Z,15.14
2022-12-28T10:39:54.848Z,16.41
2022-12-28T10:43:10.166Z,14.77
2022-12-28T10:46:22.968Z,17.99
2022-12-28T10:49:34.802Z,17.34
2022-12-28T10:52:42.398Z,22.54
2022-12-28T10:55:49.084Z,26.32
2022-12-28T10:59:28.090Z,26.39
2022-12-28T11:02:35.960Z,25.69
2022-12-28T11:05:42.936Z,18.74
2022-12-28T11:09:17.779Z,18.56
2022-12-28T11:12:32.118Z,16.30
2022-12-28T11:15:44.392Z,14.25
2022-12-28T11:18:51.687Z,13.02
2022-12-28T11:21:57.912Z,12.92
2022-12-28T11:25:08.645Z,11.08
2022-12-28T11:28:20.130Z,12.01
2022-12-28T11:31:40.999Z,11.14
2022-12-28T11:34:48.756Z,10.60
2022-12-28T11:38:00.018Z,10.20
2022-12-28T11:41:06.268Z,12.70
2022-12-28T11:44:46.269Z,15.01
2022-12-28T11:47:54.983Z,17.99
2022-12-28T11:51:08.121Z,11.69
2022-12-28T11:54:42.871Z,12.79
2022-12-28T11:57:50.023Z,13.60
2022-12-28T12:00:57.008Z,9.01
2022-12-28T12:04:43.552Z,8.88
2022-12-28T12:07:51.580Z,14.46
2022-12-28T12:11:33.598Z,11.46
2022-12-28T12:14:47.200Z,8.19
2022-12-28T12:18:05.037Z,8.56
2022-12-28T12:21:33.211Z,10.39
2022-12-28T12:24:54.656Z,8.69
2022-12-28T12:28:09.883Z,10.06
2022-12-28T12:31:27.339Z,13.52
2022-12-28T12:34:47.809Z,15.26
2022-12-28T12:38:02.781Z,12.67
2022-12-28T12:41:32.251Z,16.09
2022-12-28T12:44:55.512Z,11.27
2022-12-28T12:48:30.850Z,12.12
2022-12-28T12:51:53.781Z,16.49
2022-12-28T12:55:23.123Z,11.69
2022-12-28T12:58:44.763Z,11.24
2022-12-28T13:02:11.860Z,9.61
2022-12-28T13:05:25.492Z,10.40
2022-12-28T13:08:43.790Z,12.54
2022-12-28T13:11:54.313Z,12.81
2022-12-28T13:15:10.801Z,15.93
2022-12-28T13:21:52.273Z,14.09
2022-12-28T13:24:59.479Z,14.69
2022-12-28T13:28:09.330Z,15.33
2022-12-28T13:31:24.691Z,14.71
2022-12-28T13:34:33.904Z,15.40
2022-12-28T13:37:40.912Z,11.51
2022-12-28T13:40:56.478Z,14.96
2022-12-28T13:44:42.898Z,20.85
2022-12-28T13:47:55.878Z,16.43
2022-12-28T13:51:03.089Z,15.80
2022-12-28T13:54:13.568Z,13.42
2022-12-28T14:00:58.416Z,12.97
2022-12-28T14:04:51.248Z,13.09
2022-12-28T14:07:40.881Z,14.02
2022-12-28T14:10:51.457Z,13.65
2022-12-28T14:14:00.745Z,14.13
2022-12-28T14:17:12.535Z,13.63
2022-12-28T14:20:19.640Z,13.05
2022-12-28T14:23:29.740Z,12.37
2022-12-28T14:26:38.269Z,14.31
2022-12-28T14:30:00.738Z,17.37
2022-12-28T14:33:28.596Z,17.28
2022-12-28T14:36:55.477Z,18.12
2022-12-28T14:40:31.422Z,17.93
2022-12-28T14:43:58.675Z,18.71
2022-12-28T14:47:06.419Z,26.25
2022-12-28T14:50:27.211Z,28.57
2022-12-28T14:53:35.017Z,28.28
2022-12-28T14:56:43.275Z,18.70
2022-12-28T15:00:02.300Z,20.85
2022-12-28T15:03:22.133Z,21.28
2022-12-28T15:06:35.001Z,24.06
2022-12-28T15:09:41.942Z,25.11
2022-12-28T15:12:48.848Z,26.10
2022-12-28T15:16:01.559Z,27.91
2022-12-28T15:19:08.846Z,27.41
2022-12-28T15:22:17.783Z,27.45
2022-12-28T15:25:25.533Z,30.21
2022-12-28T15:28:31.667Z,28.32
2022-12-28T15:31:38.612Z,26.03
2022-12-28T15:34:44.886Z,25.32
2022-12-28T15:37:54.540Z,26.83
2022-12-28T15:41:01.141Z,29.30
2022-12-28T15:44:09.358Z,31.18
2022-12-28T15:47:15.532Z,31.91
2022-12-28T15:50:22.437Z,27.79
2022-12-28T15:53:31.118Z,27.52
2022-12-28T15:56:41.507Z,27.00
2022-12-28T15:59:47.646Z,27.94
2022-12-28T16:02:55.707Z,26.01
2022-12-28T16:06:04.125Z,23.10
2022-12-28T16:09:15.567Z,20.53
2022-12-28T16:12:21.664Z,18.77
2022-12-28T16:15:28.668Z,19.66
2022-12-28T16:18:34.866Z,16.91
2022-12-28T16:21:41.835Z,17.27
2022-12-28T16:24:51.190Z,18.20
2022-12-28T16:27:58.107Z,18.79
2022-12-28T16:31:05.485Z,19.81
2022-12-28T16:34:16.722Z,22.48
2022-12-28T16:37:22.790Z,21.33
2022-12-28T16:40:32.367Z,19.04
2022-12-28T16:43:38.485Z,20.04
2022-12-28T16:46:45.683Z,21.22
2022-12-28T16:49:51.780Z,23.49
2022-12-28T16:53:01.074Z,24.35
2022-12-28T16:56:10.715Z,25.36
2022-12-28T16:59:20.722Z,27.16
2022-12-28T17:02:27.076Z,26.52
2022-12-28T17:05:37.002Z,23.10
2022-12-28T17:08:43.211Z,20.78
2022-12-28T17:11:54.225Z,24.57
2022-12-28T17:15:04.788Z,25.86
2022-12-28T17:18:12.903Z,25.65
2022-12-28T17:21:19.001Z,26.53
2022-12-28T17:24:26.224Z,25.69
2022-12-28T17:27:35.051Z,23.73
2022-12-28T17:30:41.936Z,22.20
2022-12-28T17:33:48.857Z,23.11
2022-12-28T17:36:55.833Z,25.60
2022-12-28T17:40:01.975Z,26.46
2022-12-28T17:43:11.628Z,26.70
2022-12-28T17:46:18.417Z,26.48
2022-12-28T17:49:25.452Z,24.85
2022-12-28T17:52:31.883Z,24.93
2022-12-28T17:55:40.226Z,27.38
2022-12-28T17:58:49.756Z,28.48
2022-12-28T18:01:57.089Z,34.04
2022-12-28T18:05:03.395Z,35.71
2022-12-28T18:08:10.384Z,33.52
2022-12-28T18:11:16.542Z,34.49
2022-12-28T18:14:26.257Z,36.19
2022-12-28T18:17:32.558Z,36.20
2022-12-28T18:20:40.084Z,40.60
2022-12-28T18:23:48.932Z,46.50
2022-12-28T18:26:55.821Z,37.12
2022-12-28T18:30:04.518Z,31.80
2022-12-28T18:33:11.436Z,30.93
2022-12-28T18:36:18.699Z,28.20
2022-12-28T18:39:25.764Z,26.00
2022-12-28T18:42:31.978Z,24.09
2022-12-28T18:45:41.513Z,21.66
2022-12-28T18:48:47.659Z,20.04
2022-12-28T18:51:54.584Z,18.58
2022-12-28T18:55:00.781Z,19.96
2022-12-28T18:58:07.797Z,20.33
2022-12-28T19:01:55.941Z,18.39
2022-12-28T19:04:48.312Z,19.10
2022-12-28T19:07:54.521Z,19.02
2022-12-28T19:11:01.642Z,19.78
2022-12-28T19:14:08.897Z,19.55
2022-12-28T19:17:18.419Z,19.15
2022-12-28T19:20:24.817Z,18.96
2022-12-28T19:23:31.815Z,18.13
2022-12-28T19:26:39.569Z,19.58
2022-12-28T19:29:46.512Z,18.79
2022-12-28T19:32:55.467Z,17.01
2022-12-28T19:36:02.385Z,19.83
2022-12-28T19:39:09.059Z,20.42
2022-12-28T19:42:16.104Z,17.27
2022-12-28T19:45:22.254Z,15.90
2022-12-28T19:48:31.793Z,16.37
2022-12-28T19:51:37.902Z,16.14
2022-12-28T19:54:45.621Z,16.80
2022-12-28T19:57:51.650Z,16.36
2022-12-28T20:00:58.677Z,15.50
2022-12-28T20:04:13.377Z,17.80
2022-12-28T20:07:21.152Z,19.41
2022-12-28T20:10:29.135Z,19.25
2022-12-28T20:13:39.073Z,18.82
2022-12-28T20:16:46.589Z,17.40
2022-12-28T20:19:56.278Z,16.56
2022-12-28T20:23:02.873Z,16.81
2022-12-28T20:26:10.227Z,19.39
2022-12-28T20:29:16.946Z,19.86
2022-12-28T20:32:24.022Z,18.33
2022-12-28T20:35:32.826Z,13.18
2022-12-28T20:38:40.046Z,14.02
2022-12-28T20:41:58.542Z,13.19
2022-12-28T20:45:05.631Z,13.31
2022-12-28T20:48:11.718Z,11.60
2022-12-28T20:51:22.135Z,12.13
2022-12-28T20:54:28.713Z,12.50
2022-12-28T20:57:35.670Z,11.75
2022-12-28T21:00:42.574Z,13.15
2022-12-28T21:03:49.851Z,14.73
2022-12-28T21:06:58.787Z,15.56
2022-12-28T21:10:07.444Z,13.15
2022-12-28T21:13:13.743Z,13.25
2022-12-28T21:16:22.079Z,12.47
2022-12-28T21:19:28.265Z,12.04
2022-12-28T21:22:37.697Z,12.10
2022-12-28T21:25:43.891Z,11.37
2022-12-28T21:28:51.005Z,11.93
2022-12-28T21:31:58.036Z,10.98
2022-12-28T21:35:05.041Z,13.72
2022-12-28T21:38:13.930Z,13.82
2022-12-28T21:41:44.447Z,13.03
2022-12-28T21:44:50.508Z,10.60
2022-12-28T21:47:57.474Z,9.88
2022-12-28T21:51:29.805Z,9.63
2022-12-28T21:54:40.082Z,9.66
2022-12-28T21:57:46.133Z,9.75
2022-12-28T22:01:05.463Z,10.14
2022-12-28T22:04:28.264Z,12.95
2022-12-28T22:07:38.114Z,10.78
2022-12-28T22:10:59.059Z,8.99
2022-12-28T22:14:06.484Z,9.26
2022-12-28T22:17:14.642Z,9.16
2022-12-28T22:20:21.857Z,9.35
2022-12-28T22:23:34.241Z,9.76
2022-12-28T22:26:44.336Z,9.98
2022-12-28T22:29:50.392Z,9.76
2022-12-28T22:32:57.941Z,10.77
2022-12-28T22:36:12.985Z,14.75
2022-12-28T22:39:19.978Z,14.04
2022-12-28T22:42:28.807Z,14.82
2022-12-28T22:45:35.825Z,13.19
2022-12-28T22:48:42.454Z,12.43
2022-12-28T22:51:51.023Z,13.76
2022-12-28T22:54:57.105Z,13.81
2022-12-28T22:58:06.550Z,11.53
2022-12-28T23:01:16.297Z,12.25
2022-12-28T23:04:23.878Z,13.20
2022-12-28T23:07:29.951Z,15.63
2022-12-28T23:10:36.830Z,18.81
2022-12-28T23:13:45.602Z,20.38
2022-12-28T23:16:50.763Z,20.23
2022-12-28T23:20:09.181Z,22.52
2022-12-28T23:23:28.326Z,28.92
2022-12-28T23:26:46.775Z,35.72
2022-12-28T23:29:56.221Z,26.42
2022-12-28T23:33:02.431Z,22.57
2022-12-28T23:36:10.699Z,15.79
2022-12-28T23:39:16.752Z,13.93
2022-12-28T23:42:23.762Z,13.98
2022-12-28T23:45:32.397Z,16.29
2022-12-28T23:48:39.261Z,17.52
2022-12-28T23:51:47.883Z,18.27
2022-12-28T23:54:54.734Z,19.71
2022-12-28T23:58:00.804Z,18.21
